sensor_id;sensor_type;location;lat;lon;timestamp;pressure;altitude;pressure_sealevel;temperature;humidity
70902;BME280;58548;47.210;8.618;2023-11-19T00:00:50;94371.06;;;16.61;40.36
70902;BME280;58548;47.210;8.618;2023-11-19T00:03:17;94284.59;;;16.14;40.56
70902;BME280;58548;47.210;8.618;2023-11-19T00:05:43;94393.03;;;16.92;40.28
70902;BME280;58548;47.210;8.618;2023-11-19T00:08:12;94265.66;;;16.24;40.52
70902;BME280;58548;47.210;8.618;2023-11-19T00:10:41;94380.97;;;17.03;39.93
70902;BME280;58548;47.210;8.618;2023-11-19T00:13:06;94382.59;;;17.04;40.23
70902;BME280;58548;47.210;8.618;2023-11-19T00:15:32;94333.63;;;16.71;39.96
70902;BME280;58548;47.210;8.618;2023-11-19T00:17:58;94285.25;;;16.47;39.92
70902;BME280;58548;47.210;8.618;2023-11-19T00:20:30;94377.31;;;17.16;40.18
70902;BME280;58548;47.210;8.618;2023-11-19T00:22:56;94206.69;;;16.06;40.16
70902;BME280;58548;47.210;8.618;2023-11-19T00:25:24;94282.25;;;16.62;40.08
70902;BME280;58548;47.210;8.618;2023-11-19T00:27:52;94268.69;;;16.58;40.44
70902;BME280;58548;47.210;8.618;2023-11-19T00:30:19;94187.72;;;16.16;39.93
70902;BME280;58548;47.210;8.618;2023-11-19T00:32:45;94345.59;;;17.23;40.27
70902;BME280;58548;47.210;8.618;2023-11-19T00:35:11;94222.44;;;16.43;40.00
70902;BME280;58548;47.210;8.618;2023-11-19T00:37:41;94304.53;;;16.96;40.25
70902;BME280;58548;47.210;8.618;2023-11-19T00:40:18;94354.00;;;17.31;40.06
70902;BME280;58548;47.210;8.618;2023-11-19T00:42:47;94357.56;;;17.37;40.36
70902;BME280;58548;47.210;8.618;2023-11-19T00:45:15;94279.03;;;16.90;40.03
70902;BME280;58548;47.210;8.618;2023-11-19T00:47:44;94341.72;;;17.37;39.51
70902;BME280;58548;47.210;8.618;2023-11-19T00:50:12;94275.72;;;16.95;39.75
70902;BME280;58548;47.210;8.618;2023-11-19T00:52:39;94314.47;;;17.13;39.43
70902;BME280;58548;47.210;8.618;2023-11-19T00:55:07;94358.47;;;17.31;39.30
70902;BME280;58548;47.210;8.618;2023-11-19T00:57:37;94253.19;;;16.50;39.09
70902;BME280;58548;47.210;8.618;2023-11-19T01:00:04;94287.19;;;16.70;39.52
70902;BME280;58548;47.210;8.618;2023-11-19T01:02:38;94365.63;;;17.12;39.15
70902;BME280;58548;47.210;8.618;2023-11-19T01:05:04;94281.16;;;16.51;38.98
70902;BME280;58548;47.210;8.618;2023-11-19T01:07:33;94267.25;;;16.43;38.99
70902;BME280;58548;47.210;8.618;2023-11-19T01:09:59;94257.28;;;16.46;39.40
70902;BME280;58548;47.210;8.618;2023-11-19T01:12:25;94364.66;;;17.06;38.80
70902;BME280;58548;47.210;8.618;2023-11-19T01:14:54;94300.03;;;16.66;39.10
70902;BME280;58548;47.210;8.618;2023-11-19T01:17:22;94260.13;;;16.44;39.44
70902;BME280;58548;47.210;8.618;2023-11-19T01:19:48;94333.84;;;16.88;38.97
70902;BME280;58548;47.210;8.618;2023-11-19T01:22:16;94349.38;;;16.96;39.54
70902;BME280;58548;47.210;8.618;2023-11-19T01:24:48;94348.78;;;16.94;39.76
70902;BME280;58548;47.210;8.618;2023-11-19T01:27:14;94283.31;;;16.54;39.88
70902;BME280;58548;47.210;8.618;2023-11-19T01:29:40;94222.75;;;16.17;40.17
70902;BME280;58548;47.210;8.618;2023-11-19T01:32:08;94348.34;;;16.97;39.70
70902;BME280;58548;47.210;8.618;2023-11-19T01:34:34;94342.28;;;16.97;40.20
70902;BME280;58548;47.210;8.618;2023-11-19T01:37:01;94252.91;;;16.39;40.05
70902;BME280;58548;47.210;8.618;2023-11-19T01:39:29;94281.78;;;16.65;39.97
70902;BME280;58548;47.210;8.618;2023-11-19T01:41:55;94328.91;;;17.10;40.04
70902;BME280;58548;47.210;8.618;2023-11-19T01:44:21;94217.22;;;16.55;39.98
70902;BME280;58548;47.210;8.618;2023-11-19T01:46:49;94297.81;;;17.12;40.54
70902;BME280;58548;47.210;8.618;2023-11-19T01:49:17;94260.44;;;16.85;40.36
70902;BME280;58548;47.210;8.618;2023-11-19T01:51:50;94304.94;;;17.12;40.05
70902;BME280;58548;47.210;8.618;2023-11-19T01:54:18;94195.69;;;16.58;40.53
70902;BME280;58548;47.210;8.618;2023-11-19T01:56:44;94266.59;;;17.09;40.90
70902;BME280;58548;47.210;8.618;2023-11-19T01:59:14;94294.44;;;17.24;41.06
70902;BME280;58548;47.210;8.618;2023-11-19T02:01:41;94284.78;;;17.29;40.24
70902;BME280;58548;47.210;8.618;2023-11-19T02:04:08;94294.22;;;17.37;40.33
70902;BME280;58548;47.210;8.618;2023-11-19T02:06:37;94267.34;;;17.28;40.36
70902;BME280;58548;47.210;8.618;2023-11-19T02:09:06;94255.03;;;17.22;40.82
70902;BME280;58548;47.210;8.618;2023-11-19T02:11:39;94285.88;;;17.52;40.80
70902;BME280;58548;47.210;8.618;2023-11-19T02:14:05;94196.88;;;17.05;40.66
70902;BME280;58548;47.210;8.618;2023-11-19T02:16:32;94106.72;;;16.66;41.22
70902;BME280;58548;47.210;8.618;2023-11-19T02:19:00;94166.72;;;17.13;40.48
70902;BME280;58548;47.210;8.618;2023-11-19T02:21:26;94185.41;;;17.23;40.28
70902;BME280;58548;47.210;8.618;2023-11-19T02:23:57;94241.00;;;17.64;40.57
70902;BME280;58548;47.210;8.618;2023-11-19T02:26:26;94269.34;;;17.92;40.11
70902;BME280;58548;47.210;8.618;2023-11-19T02:28:58;94260.13;;;17.95;39.64
70902;BME280;58548;47.210;8.618;2023-11-19T02:31:26;94169.00;;;17.45;39.69
70902;BME280;58548;47.210;8.618;2023-11-19T02:33:54;94264.78;;;18.00;40.11
70902;BME280;58548;47.210;8.618;2023-11-19T02:36:22;94256.59;;;18.01;40.03
70902;BME280;58548;47.210;8.618;2023-11-19T02:38:48;94251.31;;;18.01;39.52
70902;BME280;58548;47.210;8.618;2023-11-19T02:41:17;94248.44;;;18.03;39.92
70902;BME280;58548;47.210;8.618;2023-11-19T02:43:45;94150.31;;;17.46;39.71
70902;BME280;58548;47.210;8.618;2023-11-19T02:46:14;94127.78;;;17.32;39.85
70902;BME280;58548;47.210;8.618;2023-11-19T02:48:43;94119.06;;;17.55;40.33
70902;BME280;58548;47.210;8.618;2023-11-19T02:51:13;94188.91;;;18.12;40.65
70902;BME280;58548;47.210;8.618;2023-11-19T02:53:41;94167.44;;;17.97;40.46
70902;BME280;58548;47.210;8.618;2023-11-19T02:56:10;94139.19;;;17.85;40.67
70902;BME280;58548;47.210;8.618;2023-11-19T02:58:48;94196.00;;;18.23;40.83
70902;BME280;58548;47.210;8.618;2023-11-19T03:01:21;94110.41;;;17.72;41.10
70902;BME280;58548;47.210;8.618;2023-11-19T03:04:00;94156.88;;;17.97;41.01
70902;BME280;58548;47.210;8.618;2023-11-19T03:06:27;94175.16;;;17.98;40.57
70902;BME280;58548;47.210;8.618;2023-11-19T03:08:54;94163.56;;;17.87;40.51
70902;BME280;58548;47.210;8.618;2023-11-19T03:11:21;94197.19;;;18.04;40.99
70902;BME280;58548;47.210;8.618;2023-11-19T03:13:49;94195.59;;;18.03;40.68
70902;BME280;58548;47.210;8.618;2023-11-19T03:16:15;94245.00;;;18.55;40.50
70902;BME280;58548;47.210;8.618;2023-11-19T03:18:42;94159.41;;;18.03;40.35
70902;BME280;58548;47.210;8.618;2023-11-19T03:21:08;94265.53;;;18.65;39.77
70902;BME280;58548;47.210;8.618;2023-11-19T03:23:36;94259.00;;;18.67;40.27
70902;BME280;58548;47.210;8.618;2023-11-19T03:26:02;94245.34;;;18.59;39.94
70902;BME280;58548;47.210;8.618;2023-11-19T03:28:31;94252.00;;;18.61;39.91
70902;BME280;58548;47.210;8.618;2023-11-19T03:30:57;94165.94;;;18.01;39.89
70902;BME280;58548;47.210;8.618;2023-11-19T03:33:23;94208.66;;;18.21;40.38
70902;BME280;58548;47.210;8.618;2023-11-19T03:35:49;94164.69;;;17.91;39.67
70902;BME280;58548;47.210;8.618;2023-11-19T03:38:18;94158.97;;;17.83;40.40
70902;BME280;58548;47.210;8.618;2023-11-19T03:40:44;94256.66;;;18.42;40.01
70902;BME280;58548;47.210;8.618;2023-11-19T03:43:12;94255.28;;;18.39;39.94
70902;BME280;58548;47.210;8.618;2023-11-19T03:45:40;94244.94;;;18.38;40.50
70902;BME280;58548;47.210;8.618;2023-11-19T03:48:08;94250.09;;;18.45;40.14
70902;BME280;58548;47.210;8.618;2023-11-19T03:50:34;94147.50;;;17.89;39.90
70902;BME280;58548;47.210;8.618;2023-11-19T03:53:00;94206.09;;;18.27;40.11
70902;BME280;58548;47.210;8.618;2023-11-19T03:55:29;94239.06;;;18.48;40.20
70902;BME280;58548;47.210;8.618;2023-11-19T03:57:55;94140.16;;;17.79;40.69
70902;BME280;58548;47.210;8.618;2023-11-19T04:00:23;94259.50;;;18.52;40.66
70902;BME280;58548;47.210;8.618;2023-11-19T04:02:52;94169.72;;;17.93;40.55
70902;BME280;58548;47.210;8.618;2023-11-19T04:05:23;94264.69;;;18.47;40.53
70902;BME280;58548;47.210;8.618;2023-11-19T04:07:49;94254.56;;;18.44;40.42
70902;BME280;58548;47.210;8.618;2023-11-19T04:10:17;94157.38;;;17.82;39.84
70902;BME280;58548;47.210;8.618;2023-11-19T04:12:43;94212.44;;;18.26;39.88
70902;BME280;58548;47.210;8.618;2023-11-19T04:15:14;94157.56;;;17.92;40.12
70902;BME280;58548;47.210;8.618;2023-11-19T04:17:40;94264.44;;;18.61;40.09
70902;BME280;58548;47.210;8.618;2023-11-19T04:20:11;94195.91;;;18.18;40.03
70902;BME280;58548;47.210;8.618;2023-11-19T04:22:39;94183.06;;;18.10;40.62
70902;BME280;58548;47.210;8.618;2023-11-19T04:25:06;94174.69;;;18.01;40.13
70902;BME280;58548;47.210;8.618;2023-11-19T04:27:32;94249.38;;;18.49;40.19
70902;BME280;58548;47.210;8.618;2023-11-19T04:29:58;94197.09;;;18.11;40.16
70902;BME280;58548;47.210;8.618;2023-11-19T04:32:24;94295.19;;;18.67;40.36
70902;BME280;58548;47.210;8.618;2023-11-19T04:34:54;94227.19;;;18.21;40.26
70902;BME280;58548;47.210;8.618;2023-11-19T04:37:20;94216.50;;;18.16;40.38
70902;BME280;58548;47.210;8.618;2023-11-19T04:39:46;94277.41;;;18.62;40.14
70902;BME280;58548;47.210;8.618;2023-11-19T04:42:14;94288.09;;;18.67;40.45
70902;BME280;58548;47.210;8.618;2023-11-19T04:44:43;94221.50;;;18.30;40.53
70902;BME280;58548;47.210;8.618;2023-11-19T04:47:11;94204.78;;;18.12;40.20
70902;BME280;58548;47.210;8.618;2023-11-19T04:49:40;94297.81;;;18.79;40.70
70902;BME280;58548;47.210;8.618;2023-11-19T04:52:11;94221.97;;;18.27;40.05
70902;BME280;58548;47.210;8.618;2023-11-19T04:54:46;94308.75;;;18.82;40.01
70902;BME280;58548;47.210;8.618;2023-11-19T04:57:16;94302.97;;;18.86;40.63
70902;BME280;58548;47.210;8.618;2023-11-19T04:59:45;94314.94;;;18.88;40.05
70902;BME280;58548;47.210;8.618;2023-11-19T05:02:13;94231.16;;;18.36;40.60
70902;BME280;58548;47.210;8.618;2023-11-19T05:04:44;94223.56;;;18.28;40.75
70902;BME280;58548;47.210;8.618;2023-11-19T05:07:12;94299.28;;;18.87;40.44
70902;BME280;58548;47.210;8.618;2023-11-19T05:09:42;94289.19;;;18.83;40.37
70902;BME280;58548;47.210;8.618;2023-11-19T05:12:11;94221.22;;;18.43;40.59
70902;BME280;58548;47.210;8.618;2023-11-19T05:14:38;94311.41;;;19.11;41.06
70902;BME280;58548;47.210;8.618;2023-11-19T05:17:04;94223.97;;;18.48;40.97
70902;BME280;58548;47.210;8.618;2023-11-19T05:19:30;94318.81;;;19.26;40.83
70902;BME280;58548;47.210;8.618;2023-11-19T05:21:58;94220.19;;;18.73;40.82
70902;BME280;58548;47.210;8.618;2023-11-19T05:24:24;94329.94;;;19.40;40.72
70902;BME280;58548;47.210;8.618;2023-11-19T05:26:52;94314.03;;;19.40;41.19
70902;BME280;58548;47.210;8.618;2023-11-19T05:29:18;94313.47;;;19.38;40.81
70902;BME280;58548;47.210;8.618;2023-11-19T05:31:46;94324.47;;;19.47;40.78
70902;BME280;58548;47.210;8.618;2023-11-19T05:34:13;94301.91;;;19.27;41.13
70902;BME280;58548;47.210;8.618;2023-11-19T05:36:40;94329.47;;;19.43;41.02
70902;BME280;58548;47.210;8.618;2023-11-19T05:39:08;94248.47;;;18.84;41.12
70902;BME280;58548;47.210;8.618;2023-11-19T05:41:34;94319.66;;;19.27;41.64
70902;BME280;58548;47.210;8.618;2023-11-19T05:44:00;94269.94;;;19.00;41.63
70902;BME280;58548;47.210;8.618;2023-11-19T05:46:27;94308.25;;;19.26;41.19
70902;BME280;58548;47.210;8.618;2023-11-19T05:48:55;94260.50;;;18.92;41.59
70902;BME280;58548;47.210;8.618;2023-11-19T05:51:23;94329.25;;;19.33;41.47
70902;BME280;58548;47.210;8.618;2023-11-19T05:53:52;94282.88;;;19.13;41.32
70902;BME280;58548;47.210;8.618;2023-11-19T05:56:23;94325.75;;;19.44;41.42
70902;BME280;58548;47.210;8.618;2023-11-19T05:58:50;94228.81;;;18.80;41.76
70902;BME280;58548;47.210;8.618;2023-11-19T06:01:18;94324.47;;;19.47;41.70
70902;BME280;58548;47.210;8.618;2023-11-19T06:03:47;94322.56;;;19.42;41.49
70902;BME280;58548;47.210;8.618;2023-11-19T06:06:15;94320.47;;;19.44;41.57
70902;BME280;58548;47.210;8.618;2023-11-19T06:08:41;94322.31;;;19.44;41.71
70902;BME280;58548;47.210;8.618;2023-11-19T06:11:12;94320.69;;;19.43;41.99
70902;BME280;58548;47.210;8.618;2023-11-19T06:13:40;94316.31;;;19.49;41.43
70902;BME280;58548;47.210;8.618;2023-11-19T06:16:06;94309.69;;;19.34;41.94
70902;BME280;58548;47.210;8.618;2023-11-19T06:18:36;94273.00;;;19.09;42.39
70902;BME280;58548;47.210;8.618;2023-11-19T06:21:07;94313.84;;;19.30;41.92
70902;BME280;58548;47.210;8.618;2023-11-19T06:23:33;94253.13;;;18.94;41.99
70902;BME280;58548;47.210;8.618;2023-11-19T06:26:01;94222.47;;;18.81;41.77
70902;BME280;58548;47.210;8.618;2023-11-19T06:28:29;94322.84;;;19.29;42.30
70902;BME280;58548;47.210;8.618;2023-11-19T06:30:57;94217.13;;;18.64;42.47
70902;BME280;58548;47.210;8.618;2023-11-19T06:33:24;94304.69;;;19.21;42.65
70902;BME280;58548;47.210;8.618;2023-11-19T06:35:50;94269.53;;;19.08;42.38
70902;BME280;58548;47.210;8.618;2023-11-19T06:38:18;94214.44;;;18.76;42.08
70902;BME280;58548;47.210;8.618;2023-11-19T06:40:46;94222.78;;;18.85;42.41
70902;BME280;58548;47.210;8.618;2023-11-19T06:43:14;94219.13;;;18.86;42.03
70902;BME280;58548;47.210;8.618;2023-11-19T06:45:43;94318.38;;;19.47;42.42
70902;BME280;58548;47.210;8.618;2023-11-19T06:48:11;94219.41;;;18.73;42.54
70902;BME280;58548;47.210;8.618;2023-11-19T06:50:39;94319.97;;;19.31;42.54
70902;BME280;58548;47.210;8.618;2023-11-19T06:53:08;94312.75;;;19.26;42.83
70902;BME280;58548;47.210;8.618;2023-11-19T06:55:36;94296.09;;;19.13;43.20
70902;BME280;58548;47.210;8.618;2023-11-19T06:58:02;94255.34;;;18.86;42.66
70902;BME280;58548;47.210;8.618;2023-11-19T07:00:30;94291.19;;;19.05;42.77
70902;BME280;58548;47.210;8.618;2023-11-19T07:02:59;94270.03;;;19.05;42.98
70902;BME280;58548;47.210;8.618;2023-11-19T07:05:27;94282.22;;;19.06;42.87
70902;BME280;58548;47.210;8.618;2023-11-19T07:07:56;94332.00;;;19.38;42.51
70902;BME280;58548;47.210;8.618;2023-11-19T07:10:24;94324.63;;;19.40;42.96
70902;BME280;58548;47.210;8.618;2023-11-19T07:12:52;94275.34;;;19.22;42.21
70902;BME280;58548;47.210;8.618;2023-11-19T07:15:18;94294.94;;;19.38;42.09
70902;BME280;58548;47.210;8.618;2023-11-19T07:17:44;94223.81;;;18.96;42.05
70902;BME280;58548;47.210;8.618;2023-11-19T07:20:11;94310.59;;;19.57;42.21
70902;BME280;58548;47.210;8.618;2023-11-19T07:22:44;94335.88;;;19.65;42.18
70902;BME280;58548;47.210;8.618;2023-11-19T07:25:15;94258.47;;;19.11;42.12
70902;BME280;58548;47.210;8.618;2023-11-19T07:27:41;94259.13;;;19.19;42.13
70902;BME280;58548;47.210;8.618;2023-11-19T07:30:10;94345.28;;;19.72;42.05
70902;BME280;58548;47.210;8.618;2023-11-19T07:32:36;94261.88;;;19.24;41.88
70902;BME280;58548;47.210;8.618;2023-11-19T07:35:05;94327.22;;;19.69;41.62
70902;BME280;58548;47.210;8.618;2023-11-19T07:37:31;94332.03;;;19.72;42.09
70902;BME280;58548;47.210;8.618;2023-11-19T07:40:01;94333.72;;;19.79;42.19
70902;BME280;58548;47.210;8.618;2023-11-19T07:42:30;94217.09;;;19.05;41.77
70902;BME280;58548;47.210;8.618;2023-11-19T07:44:57;94301.34;;;19.59;41.95
70902;BME280;58548;47.210;8.618;2023-11-19T07:47:25;94317.91;;;19.67;41.60
70902;BME280;58548;47.210;8.618;2023-11-19T07:49:53;94324.66;;;19.74;41.57
70902;BME280;58548;47.210;8.618;2023-11-19T07:52:24;94350.72;;;19.95;41.66
70902;BME280;58548;47.210;8.618;2023-11-19T07:54:49;94274.72;;;19.49;41.63
70902;BME280;58548;47.210;8.618;2023-11-19T07:57:18;94339.78;;;19.91;41.63
70902;BME280;58548;47.210;8.618;2023-11-19T07:59:43;94352.16;;;20.02;41.79
70902;BME280;58548;47.210;8.618;2023-11-19T08:02:11;94250.97;;;19.37;41.60
70902;BME280;58548;47.210;8.618;2023-11-19T08:04:40;94251.63;;;19.44;41.51
70902;BME280;58548;47.210;8.618;2023-11-19T08:07:11;94335.59;;;19.95;41.71
70902;BME280;58548;47.210;8.618;2023-11-19T08:09:37;94346.19;;;20.12;41.38
70902;BME280;58548;47.210;8.618;2023-11-19T08:12:05;94237.94;;;19.53;41.50
70902;BME280;58548;47.210;8.618;2023-11-19T08:14:37;94307.34;;;20.01;41.32
70902;BME280;58548;47.210;8.618;2023-11-19T08:17:05;94317.75;;;20.08;41.17
70902;BME280;58548;47.210;8.618;2023-11-19T08:19:32;94334.38;;;20.20;41.19
70902;BME280;58548;47.210;8.618;2023-11-19T08:21:58;94253.53;;;19.66;41.18
70902;BME280;58548;47.210;8.618;2023-11-19T08:24:24;94253.53;;;19.66;41.11
70902;BME280;58548;47.210;8.618;2023-11-19T08:26:52;94313.03;;;20.10;40.94
70902;BME280;58548;47.210;8.618;2023-11-19T08:29:25;94269.72;;;19.87;40.69
70902;BME280;58548;47.210;8.618;2023-11-19T08:31:53;94274.00;;;19.88;40.75
70902;BME280;58548;47.210;8.618;2023-11-19T08:34:22;94364.47;;;20.48;40.76
70902;BME280;58548;47.210;8.618;2023-11-19T08:36:54;94362.03;;;20.46;40.75
70902;BME280;58548;47.210;8.618;2023-11-19T08:39:20;94270.31;;;19.89;40.81
70902;BME280;58548;47.210;8.618;2023-11-19T08:41:49;94255.28;;;19.78;41.02
70902;BME280;58548;47.210;8.618;2023-11-19T08:44:16;94360.75;;;20.49;41.08
70902;BME280;58548;47.210;8.618;2023-11-19T08:46:49;94371.38;;;20.49;40.89
70902;BME280;58548;47.210;8.618;2023-11-19T08:49:17;94369.59;;;20.55;40.72
70902;BME280;58548;47.210;8.618;2023-11-19T08:51:43;94272.06;;;20.00;40.51
70902;BME280;58548;47.210;8.618;2023-11-19T08:54:11;94360.66;;;20.61;40.58
70902;BME280;58548;47.210;8.618;2023-11-19T08:56:38;94328.28;;;20.42;40.36
70902;BME280;58548;47.210;8.618;2023-11-19T08:59:07;94352.06;;;20.54;40.68
70902;BME280;58548;47.210;8.618;2023-11-19T09:01:34;94352.88;;;20.54;40.36
70902;BME280;58548;47.210;8.618;2023-11-19T09:04:00;94288.13;;;20.11;40.86
70902;BME280;58548;47.210;8.618;2023-11-19T09:06:26;94265.59;;;19.91;40.78
70902;BME280;58548;47.210;8.618;2023-11-19T09:08:53;94324.47;;;20.32;41.02
70902;BME280;58548;47.210;8.618;2023-11-19T09:11:24;94367.78;;;20.60;40.77
70902;BME280;58548;47.210;8.618;2023-11-19T09:13:49;94360.59;;;20.56;40.63
70902;BME280;58548;47.210;8.618;2023-11-19T09:16:17;94290.22;;;20.09;40.85
70902;BME280;58548;47.210;8.618;2023-11-19T09:18:43;94290.78;;;20.11;40.83
70902;BME280;58548;47.210;8.618;2023-11-19T09:21:13;94267.31;;;20.02;40.61
70902;BME280;58548;47.210;8.618;2023-11-19T09:23:39;94368.44;;;20.68;40.49
70902;BME280;58548;47.210;8.618;2023-11-19T09:26:06;94288.25;;;20.21;40.58
70902;BME280;58548;47.210;8.618;2023-11-19T09:28:36;94327.81;;;20.45;40.42
70902;BME280;58548;47.210;8.618;2023-11-19T09:31:03;94364.72;;;20.69;40.52
70902;BME280;58548;47.210;8.618;2023-11-19T09:33:40;94378.69;;;20.81;40.30
70902;BME280;58548;47.210;8.618;2023-11-19T09:36:12;94395.88;;;20.96;40.19
70902;BME280;58548;47.210;8.618;2023-11-19T09:38:45;94374.81;;;20.89;40.03
70902;BME280;58548;47.210;8.618;2023-11-19T09:41:16;94289.44;;;20.30;40.20
70902;BME280;58548;47.210;8.618;2023-11-19T09:43:45;94308.03;;;20.36;40.63
70902;BME280;58548;47.210;8.618;2023-11-19T09:46:15;94278.19;;;20.23;40.52
70902;BME280;58548;47.210;8.618;2023-11-19T09:48:43;94287.88;;;20.34;41.05
70902;BME280;58548;47.210;8.618;2023-11-19T09:51:16;94379.97;;;20.96;40.55
70902;BME280;58548;47.210;8.618;2023-11-19T09:53:41;94283.28;;;20.47;40.69
70902;BME280;58548;47.210;8.618;2023-11-19T09:56:11;94345.44;;;20.96;40.50
70902;BME280;58548;47.210;8.618;2023-11-19T09:58:38;94369.59;;;21.21;40.10
70902;BME280;58548;47.210;8.618;2023-11-19T10:01:07;94276.13;;;20.70;39.88
70902;BME280;58548;47.210;8.618;2023-11-19T10:03:39;94276.66;;;20.72;40.00
70902;BME280;58548;47.210;8.618;2023-11-19T10:06:08;94278.66;;;20.82;40.11
70902;BME280;58548;47.210;8.618;2023-11-19T10:08:38;94358.63;;;21.40;39.68
70902;BME280;58548;47.210;8.618;2023-11-19T10:11:10;94358.13;;;21.43;39.70
70902;BME280;58548;47.210;8.618;2023-11-19T10:13:41;94273.94;;;20.89;39.77
70902;BME280;58548;47.210;8.618;2023-11-19T10:16:09;94313.75;;;21.11;39.37
70902;BME280;58548;47.210;8.618;2023-11-19T10:18:44;94265.44;;;20.87;39.63
70902;BME280;58548;47.210;8.618;2023-11-19T10:21:13;94269.41;;;20.84;40.02
70902;BME280;58548;47.210;8.618;2023-11-19T10:23:52;94373.09;;;21.49;39.74
70902;BME280;58548;47.210;8.618;2023-11-19T10:26:21;94369.31;;;21.45;39.49
70902;BME280;58548;47.210;8.618;2023-11-19T10:28:50;94268.97;;;20.92;39.98
70902;BME280;58548;47.210;8.618;2023-11-19T10:31:18;94261.44;;;20.84;39.99
70902;BME280;58548;47.210;8.618;2023-11-19T10:33:45;94264.63;;;20.86;40.84
70902;BME280;58548;47.210;8.618;2023-11-19T10:36:12;94330.09;;;21.52;40.84
70902;BME280;58548;47.210;8.618;2023-11-19T10:38:39;94273.06;;;21.33;40.30
70902;BME280;58548;47.210;8.618;2023-11-19T10:41:06;94313.34;;;21.84;39.91
70902;BME280;58548;47.210;8.618;2023-11-19T10:43:43;94287.16;;;21.66;40.03
70902;BME280;58548;47.210;8.618;2023-11-19T10:46:11;94356.19;;;22.26;39.57
70902;BME280;58548;47.210;8.618;2023-11-19T10:48:39;94328.53;;;22.27;39.15
70902;BME280;58548;47.210;8.618;2023-11-19T10:51:08;94338.72;;;22.40;38.99
70902;BME280;58548;47.210;8.618;2023-11-19T10:53:38;94329.13;;;22.39;38.92
70902;BME280;58548;47.210;8.618;2023-11-19T10:56:06;94350.50;;;22.50;38.60
70902;BME280;58548;47.210;8.618;2023-11-19T10:58:44;94296.03;;;22.20;38.94
70902;BME280;58548;47.210;8.618;2023-11-19T11:01:18;94283.78;;;22.13;38.71
70902;BME280;58548;47.210;8.618;2023-11-19T11:03:47;94335.59;;;22.43;38.87
70902;BME280;58548;47.210;8.618;2023-11-19T11:06:13;94293.31;;;22.09;38.69
70902;BME280;58548;47.210;8.618;2023-11-19T11:08:40;94266.38;;;21.95;38.85
70902;BME280;58548;47.210;8.618;2023-11-19T11:11:13;94257.56;;;21.90;38.89
70902;BME280;58548;47.210;8.618;2023-11-19T11:13:44;94244.28;;;21.90;38.90
70902;BME280;58548;47.210;8.618;2023-11-19T11:16:12;94255.53;;;22.02;39.00
70902;BME280;58548;47.210;8.618;2023-11-19T11:18:44;94304.09;;;22.35;38.99
70902;BME280;58548;47.210;8.618;2023-11-19T11:21:15;94248.09;;;22.09;39.19
70902;BME280;58548;47.210;8.618;2023-11-19T11:29:41;94338.97;;;22.82;38.43
70902;BME280;58548;47.210;8.618;2023-11-19T11:32:36;94331.47;;;22.79;38.32
70902;BME280;58548;47.210;8.618;2023-11-19T11:38:03;94308.00;;;22.65;38.13
70902;BME280;58548;47.210;8.618;2023-11-19T11:40:31;94319.22;;;22.78;38.00
70902;BME280;58548;47.210;8.618;2023-11-19T11:43:00;94308.28;;;22.69;38.27
70902;BME280;58548;47.210;8.618;2023-11-19T11:45:39;94246.06;;;22.27;38.47
70902;BME280;58548;47.210;8.618;2023-11-19T11:48:15;94316.84;;;22.81;38.10
70902;BME280;58548;47.210;8.618;2023-11-19T11:51:07;94311.81;;;22.85;38.61
70902;BME280;58548;47.210;8.618;2023-11-19T11:53:34;94221.56;;;22.20;38.33
70902;BME280;58548;47.210;8.618;2023-11-19T11:56:00;94288.81;;;22.58;38.75
70902;BME280;58548;47.210;8.618;2023-11-19T11:58:32;94310.72;;;22.81;38.59
70902;BME280;58548;47.210;8.618;2023-11-19T12:01:01;94228.59;;;22.41;38.22
70902;BME280;58548;47.210;8.618;2023-11-19T12:03:29;94218.13;;;22.24;38.56
70902;BME280;58548;47.210;8.618;2023-11-19T12:05:57;94151.72;;;21.81;38.63
70902;BME280;58548;47.210;8.618;2023-11-19T12:08:28;94225.34;;;22.34;38.52
70902;BME280;58548;47.210;8.618;2023-11-19T12:10:58;94299.00;;;22.77;38.42
70902;BME280;58548;47.210;8.618;2023-11-19T12:13:29;94275.47;;;22.53;38.49
70902;BME280;58548;47.210;8.618;2023-11-19T12:16:08;94234.41;;;22.38;39.06
70902;BME280;58548;47.210;8.618;2023-11-19T12:18:35;94269.97;;;22.70;38.82
70902;BME280;58548;47.210;8.618;2023-11-19T12:21:01;94192.34;;;22.30;38.49
70902;BME280;58548;47.210;8.618;2023-11-19T12:23:29;94272.13;;;22.83;38.52
70902;BME280;58548;47.210;8.618;2023-11-19T12:25:56;94228.16;;;22.70;38.26
70902;BME280;58548;47.210;8.618;2023-11-19T12:28:25;94187.66;;;22.53;38.47
70902;BME280;58548;47.210;8.618;2023-11-19T12:31:07;94273.81;;;23.15;38.28
70902;BME280;58548;47.210;8.618;2023-11-19T12:33:36;94279.97;;;23.21;38.03
70902;BME280;58548;47.210;8.618;2023-11-19T12:36:08;94173.84;;;22.56;38.21
70902;BME280;58548;47.210;8.618;2023-11-19T12:38:38;94279.16;;;23.26;38.03
70902;BME280;58548;47.210;8.618;2023-11-19T12:41:09;94193.03;;;22.79;37.79
70902;BME280;58548;47.210;8.618;2023-11-19T12:43:46;94266.13;;;23.24;37.70
70902;BME280;58548;47.210;8.618;2023-11-19T12:48:50;94267.72;;;23.25;37.58
70902;BME280;58548;47.210;8.618;2023-11-19T12:51:19;94189.88;;;22.82;37.70
70902;BME280;58548;47.210;8.618;2023-11-19T12:53:50;94256.00;;;23.21;37.78
70902;BME280;58548;47.210;8.618;2023-11-19T12:56:21;94258.66;;;23.26;38.25
70902;BME280;58548;47.210;8.618;2023-11-19T12:58:48;94247.41;;;23.14;37.57
70902;BME280;58548;47.210;8.618;2023-11-19T13:01:20;94155.75;;;22.63;37.64
70902;BME280;58548;47.210;8.618;2023-11-19T13:03:47;94157.63;;;22.78;37.47
70902;BME280;58548;47.210;8.618;2023-11-19T13:06:17;94199.50;;;23.09;37.48
70902;BME280;58548;47.210;8.618;2023-11-19T13:08:48;94236.50;;;23.15;37.58
70902;BME280;58548;47.210;8.618;2023-11-19T13:11:31;94243.69;;;23.15;37.91
70902;BME280;58548;47.210;8.618;2023-11-19T13:14:03;94248.22;;;23.14;37.81
70902;BME280;58548;47.210;8.618;2023-11-19T13:16:38;94159.47;;;22.57;38.00
70902;BME280;58548;47.210;8.618;2023-11-19T13:19:13;94137.34;;;22.56;37.98